Grayson, LA

5:46 PM CDT on August 01, 2014 (GMT -0500)
Monroe Regional (KMLU) Elev 79 ft | 32.51 °N, 92.04 °W | Change Station

Current weather conditions updated 19 minutes ago

Overcast
Overcast
72 °F
Feels Like 72 °F
N
6
Wind Variable Wind from ENE

Tomorrow is forecast to be Much Warmer than today. Scattered thunderstorms possible.

Today
High -- | Low -- °F
--% Chance of Precip.
Yesterday
High -- | Low -- °F
Precip. -- in
6:23 AM 8:04 PM
Waxing Crescent, 30% visible
Pressure 29.98 in
Visibility 2.0 miles
Clouds Overcast 300 ft
Dew Point 70 °F
Humidity 94%
Rainfall 1.10 in
Snow Depth Not available.
UV 1 out of 12
Pollen 1.00 out of 12
Air Quality Not available.
Flu Activity Not available.
SPECI KMLU 012227Z 07005KT 2SM BR OVC003 22/21 A2998 RMK AO2 RAE03 CIG 003V009 P0000

More Conditions Fewer Conditions

Pressure 29.98 in
Visibility 2.0 miles
Clouds Overcast 300 ft
Dew Point 70 °F
Humidity 94%
Rainfall 1.10 in
Snow Depth Not available.
UV 1 out of 12
Pollen 1.00 out of 12
Air Quality Not available.
Flu Activity Not available.
SPECI KMLU 012227Z 07005KT 2SM BR OVC003 22/21 A2998 RMK AO2 RAE03 CIG 003V009 P0000

More Conditions Fewer Conditions

Nowcast | as of 4:31 PM CDT on August 1, 2014

Patchy light rain and drizzle to continue over the next couple of hours with trace amounts of rainfall expected and visibility values dropping to around 3 miles in some places.

×

10-Day Weather Forecast

Almanac

Astronomy

Aug. 01, 2014 Rise Set
Actual Time 6:23 AM CDT 8:04 PM CDT
Civil Twilight 5:56 AM CDT 8:31 PM CDT
Nautical Twilight 5:24 AM CDT 9:03 PM CDT
Astronomical Twilight 4:50 AM CDT 9:36 PM CDT
Moon 11:25 AM CDT 11:12 PM CDT
Length of Visible Light 14h 34m
Length of Day
13h 41m
Tomorrow will be 1m 27s shorter.
Waxing Crescent, 30% of the Moon is Illuminated
Today
Waxing Crescent
Aug 3
First Quarter
Aug 10
Full
Aug 17
Last Quarter
Aug 25
New

Today's Extremes

State Highs State Lows

Community

WunderPhotos

Upload Photos

1,739,736 photos uploaded!

Nearby

Snow Depth

Station Depth Elevation
No new snow has been reported.

Earthquake Activity

City Distance Mag. Time & Date
No recent earthquake activity has been reported nearby.
Minimum magnitude displayed is 2.5.

Coastal Water Temperatures

Place Temperature
No Stations Reporting

Nearby Weather Stations

Station Location Temp. Heat Index Dew Point Humidity Wind Precip. Elev Updated Type
MesoWest GRAYSN , Clarks, LA 70 °F - - - North  at  - 0.00 in / hr 178 ft 3:45 PM CDT MADIS
MesoWest RIVRTN , Columbia, LA 73 °F 71 °F - - North  at  - 0.00 in / hr 74 ft 4:05 PM CDT MADIS
MesoWest OLLA , Olla, LA 73 °F 71 °F - - North  at  - 0.00 in / hr 189 ft 4:10 PM CDT MADIS

Show More Stations Show Fewer Stations